Time;durP1;ratioP1;P1;durP2;ratioP2;P2;SDS_P1;SDS_P2;PMS_P1;PMS_P2;Temp;Humidity;BMP_temperature;BMP_pressure;BME280_temperature;BME280_humidity;BME280_pressure;Samples;Min_cycle;Max_cycle;Signal;HPM_P1;HPM_P2
2023/12/06 00:00:33;;;;;;;;;;;18.10;58.40;;;;;;7320093;19;9668;-62
2023/12/06 00:03:03;;;;;;;;;;;18.10;58.40;;;;;;7318217;19;9480;-62
2023/12/06 00:05:35;;;;;;;;;;;18.10;58.40;;;;;;7320293;19;9494;-62
2023/12/06 00:08:04;;;;;;;;;;;18.10;58.40;;;;;;7318667;19;9496;-62
2023/12/06 00:10:33;;;;;;;;;;;18.10;58.40;;;;;;7317532;19;9457;-63
2023/12/06 00:13:02;;;;;;;;;;;18.00;58.40;;;;;;7318554;19;9422;-62
2023/12/06 00:15:32;;;;;;;;;;;18.00;58.30;;;;;;7318104;19;9446;-62
2023/12/06 00:18:01;;;;;;;;;;;18.00;58.30;;;;;;7320120;19;9717;-62
2023/12/06 00:20:30;;;;;;;;;;;18.00;58.30;;;;;;7319251;19;9361;-62
2023/12/06 00:23:02;;;;;;;;;;;18.00;58.30;;;;;;7318948;19;9499;-62
2023/12/06 00:25:31;;;;;;;;;;;18.00;58.30;;;;;;7319420;19;9494;-62
2023/12/06 00:28:01;;;;;;;;;;;17.90;58.30;;;;;;7318403;19;9677;-62
2023/12/06 00:30:30;;;;;;;;;;;17.90;58.20;;;;;;7320264;19;9671;-62
2023/12/06 00:32:59;;;;;;;;;;;17.90;58.20;;;;;;7319329;19;9268;-62
2023/12/06 00:35:28;;;;;;;;;;;17.90;58.20;;;;;;7318974;19;9526;-62
2023/12/06 00:37:57;;;;;;;;;;;17.90;58.20;;;;;;7317807;19;9541;-62
2023/12/06 00:40:28;;;;;;;;;;;17.90;58.20;;;;;;7319503;19;9535;-62
2023/12/06 00:42:57;;;;;;;;;;;17.90;58.30;;;;;;7317252;19;9379;-62
2023/12/06 00:45:26;;;;;;;;;;;17.90;58.30;;;;;;7318643;19;9523;-62
2023/12/06 00:47:55;;;;;;;;;;;17.90;58.30;;;;;;7318835;19;9464;-62
2023/12/06 00:50:24;;;;;;;;;;;17.90;58.20;;;;;;7315727;19;9305;-62
2023/12/06 00:52:53;;;;;;;;;;;17.80;58.20;;;;;;7318814;19;11273;-62
2023/12/06 00:55:22;;;;;;;;;;;17.80;58.10;;;;;;7318269;19;9308;-62
2023/12/06 00:57:54;;;;;;;;;;;17.80;58.20;;;;;;7319395;19;9119;-62
2023/12/06 01:00:24;;;;;;;;;;;17.80;58.20;;;;;;7317705;19;9538;-62
2023/12/06 01:02:53;;;;;;;;;;;17.80;58.20;;;;;;7318564;19;9402;-62
2023/12/06 01:05:22;;;;;;;;;;;17.80;58.20;;;;;;7318104;19;9275;-61
2023/12/06 01:07:51;;;;;;;;;;;17.80;58.10;;;;;;7318306;19;9547;-62
2023/12/06 01:10:21;;;;;;;;;;;17.80;58.10;;;;;;7317404;19;9611;-62
2023/12/06 01:12:50;;;;;;;;;;;17.80;58.20;;;;;;7316898;19;9220;-61
2023/12/06 01:15:22;;;;;;;;;;;17.80;58.10;;;;;;7317275;19;9569;-61
2023/12/06 01:17:52;;;;;;;;;;;17.70;58.10;;;;;;7318929;19;9442;-62
2023/12/06 01:20:21;;;;;;;;;;;17.70;58.00;;;;;;7315744;19;9307;-61
2023/12/06 01:22:50;;;;;;;;;;;17.70;58.00;;;;;;7319410;19;9178;-60
2023/12/06 01:25:21;;;;;;;;;;;17.70;58.10;;;;;;7316508;19;9236;-61
2023/12/06 01:27:50;;;;;;;;;;;17.70;58.10;;;;;;7318199;19;9521;-61
2023/12/06 01:30:21;;;;;;;;;;;17.70;58.10;;;;;;7319485;19;10815;-61
2023/12/06 01:32:50;;;;;;;;;;;17.70;58.10;;;;;;7317282;19;9265;-60
2023/12/06 01:35:20;;;;;;;;;;;17.70;58.00;;;;;;7317152;19;9282;-61
2023/12/06 01:37:49;;;;;;;;;;;17.70;58.00;;;;;;7317823;19;10472;-61
2023/12/06 01:40:18;;;;;;;;;;;17.70;58.00;;;;;;7317239;19;9469;-61
2023/12/06 01:42:47;;;;;;;;;;;17.60;58.00;;;;;;7316207;19;12489;-61
2023/12/06 01:45:16;;;;;;;;;;;17.60;58.00;;;;;;7315899;19;9491;-61
2023/12/06 01:47:51;;;;;;;;;;;17.60;58.00;;;;;;7317409;19;9454;-61
2023/12/06 01:50:20;;;;;;;;;;;17.60;58.00;;;;;;7315430;19;9281;-61
2023/12/06 01:52:50;;;;;;;;;;;17.60;57.90;;;;;;7317384;19;9169;-61
2023/12/06 01:55:19;;;;;;;;;;;17.60;58.00;;;;;;7315736;19;9522;-61
2023/12/06 01:58:08;;;;;;;;;;;17.60;58.00;;;;;;7315414;19;10125;-61
2023/12/06 02:00:37;;;;;;;;;;;17.50;57.90;;;;;;7315649;19;9336;-61
2023/12/06 02:03:09;;;;;;;;;;;17.60;58.00;;;;;;7316850;19;9493;-61
2023/12/06 02:05:38;;;;;;;;;;;17.60;58.00;;;;;;7315774;19;9578;-64
2023/12/06 02:08:08;;;;;;;;;;;17.60;58.00;;;;;;7315951;19;9500;-61
2023/12/06 02:10:37;;;;;;;;;;;17.50;57.90;;;;;;7315992;19;9447;-61
2023/12/06 02:13:06;;;;;;;;;;;17.60;57.90;;;;;;7317141;19;9626;-61
2023/12/06 02:15:35;;;;;;;;;;;17.60;57.90;;;;;;7316091;19;9203;-61
2023/12/06 02:18:04;;;;;;;;;;;17.60;58.00;;;;;;7322987;19;9326;-61
2023/12/06 02:20:37;;;;;;;;;;;17.60;57.70;;;;;;7322959;19;9594;-61
2023/12/06 02:23:09;;;;;;;;;;;17.70;57.60;;;;;;7323913;19;9598;-61
2023/12/06 02:25:42;;;;;;;;;;;17.70;57.50;;;;;;7322629;19;10661;-61
2023/12/06 02:28:11;;;;;;;;;;;17.80;57.50;;;;;;7321908;19;10683;-61
2023/12/06 02:30:40;;;;;;;;;;;17.80;57.30;;;;;;7324275;19;9476;-61
2023/12/06 02:33:09;;;;;;;;;;;17.90;57.20;;;;;;7320428;19;9341;-61
2023/12/06 02:35:44;;;;;;;;;;;17.90;57.10;;;;;;7318606;19;9441;-61
2023/12/06 02:38:17;;;;;;;;;;;18.00;57.10;;;;;;7320682;19;9509;-61
2023/12/06 02:40:53;;;;;;;;;;;18.10;57.00;;;;;;7321262;19;9566;-62
2023/12/06 02:43:22;;;;;;;;;;;18.20;57.00;;;;;;7321937;19;9504;-62
2023/12/06 02:45:51;;;;;;;;;;;18.20;56.80;;;;;;7321234;19;9486;-62
2023/12/06 02:48:20;;;;;;;;;;;18.30;56.80;;;;;;7320570;19;9473;-61
2023/12/06 02:50:49;;;;;;;;;;;18.40;56.80;;;;;;7320975;19;9566;-62
2023/12/06 02:53:18;;;;;;;;;;;18.40;56.70;;;;;;7319637;19;9410;-62
2023/12/06 02:55:49;;;;;;;;;;;18.50;56.60;;;;;;7320190;19;9473;-61
2023/12/06 02:58:18;;;;;;;;;;;18.50;56.50;;;;;;7322601;19;9360;-61
2023/12/06 03:01:08;;;;;;;;;;;18.50;56.20;;;;;;7318623;19;9501;-61
2023/12/06 03:03:37;;;;;;;;;;;18.50;56.20;;;;;;7321051;19;9480;-62
2023/12/06 03:06:26;;;;;;;;;;;18.50;56.10;;;;;;7319033;19;9470;-62
2023/12/06 03:08:55;;;;;;;;;;;18.40;56.00;;;;;;7320690;19;10090;-62
2023/12/06 03:11:26;;;;;;;;;;;18.40;56.10;;;;;;7320978;19;10351;-62
2023/12/06 03:13:55;;;;;;;;;;;18.40;56.10;;;;;;7319096;19;9543;-61
2023/12/06 03:16:24;;;;;;;;;;;18.40;56.10;;;;;;7318426;19;9667;-62
2023/12/06 03:18:53;;;;;;;;;;;18.30;56.10;;;;;;7320113;19;9455;-62
2023/12/06 03:21:42;;;;;;;;;;;18.30;56.20;;;;;;7318952;19;9704;-62
2023/12/06 03:24:11;;;;;;;;;;;18.30;56.30;;;;;;7319185;19;9485;-62
2023/12/06 03:26:43;;;;;;;;;;;18.20;56.20;;;;;;7320419;19;9415;-62
2023/12/06 03:29:12;;;;;;;;;;;18.20;56.40;;;;;;7322116;19;9493;-62
2023/12/06 03:31:41;;;;;;;;;;;18.20;56.40;;;;;;7320509;19;9513;-62
2023/12/06 03:34:10;;;;;;;;;;;18.10;56.50;;;;;;7321345;19;9607;-61
2023/12/06 03:36:39;;;;;;;;;;;18.10;56.50;;;;;;7320236;19;9840;-62
2023/12/06 03:39:08;;;;;;;;;;;18.10;56.60;;;;;;7318445;19;9164;-61
2023/12/06 03:41:37;;;;;;;;;;;18.00;56.50;;;;;;7319782;19;9508;-62
2023/12/06 03:44:09;;;;;;;;;;;18.00;56.60;;;;;;7321249;19;9461;-62
2023/12/06 03:46:38;;;;;;;;;;;18.00;56.60;;;;;;7321494;19;9309;-62
2023/12/06 03:49:07;;;;;;;;;;;17.90;56.70;;;;;;7319794;19;9652;-61
2023/12/06 03:51:36;;;;;;;;;;;17.90;56.70;;;;;;7318824;19;10354;-61
2023/12/06 03:54:06;;;;;;;;;;;17.90;56.80;;;;;;7321315;19;9273;-61
2023/12/06 03:56:35;;;;;;;;;;;17.80;56.80;;;;;;7320060;19;10295;-62
2023/12/06 03:59:06;;;;;;;;;;;17.80;56.90;;;;;;7318935;19;9240;-62
2023/12/06 04:01:38;;;;;;;;;;;17.80;56.90;;;;;;7319916;19;9210;-63
2023/12/06 04:04:07;;;;;;;;;;;17.80;56.90;;;;;;7321814;19;10616;-62
2023/12/06 04:06:36;;;;;;;;;;;17.80;57.00;;;;;;7319437;19;9507;-61
2023/12/06 04:09:06;;;;;;;;;;;17.70;57.00;;;;;;7317388;19;9189;-62
2023/12/06 04:11:35;;;;;;;;;;;17.70;57.10;;;;;;7317897;19;9523;-62
2023/12/06 04:14:04;;;;;;;;;;;17.70;57.00;;;;;;7319545;19;9377;-63
2023/12/06 04:16:33;;;;;;;;;;;17.70;57.10;;;;;;7317994;19;9588;-62
2023/12/06 04:19:05;;;;;;;;;;;17.60;57.00;;;;;;7319898;19;9486;-62
2023/12/06 04:21:34;;;;;;;;;;;17.60;57.00;;;;;;7321358;19;9505;-62
2023/12/06 04:24:03;;;;;;;;;;;17.60;57.10;;;;;;7319546;19;9593;-62
2023/12/06 04:26:32;;;;;;;;;;;17.60;57.10;;;;;;7318682;19;9505;-62
2023/12/06 04:29:01;;;;;;;;;;;17.60;57.10;;;;;;7321775;19;9637;-62
2023/12/06 04:31:30;;;;;;;;;;;17.60;57.10;;;;;;7319602;19;9354;-62
2023/12/06 04:33:59;;;;;;;;;;;17.60;57.10;;;;;;7319079;19;9433;-63
2023/12/06 04:36:30;;;;;;;;;;;17.60;57.20;;;;;;7319651;19;10326;-62
2023/12/06 04:39:00;;;;;;;;;;;17.60;57.00;;;;;;7317486;19;9640;-62
2023/12/06 04:41:29;;;;;;;;;;;17.60;56.90;;;;;;7318802;19;9292;-62
2023/12/06 04:43:58;;;;;;;;;;;17.70;56.90;;;;;;7317813;19;10698;-62
2023/12/06 04:46:27;;;;;;;;;;;17.70;56.80;;;;;;7319584;19;9435;-62
2023/12/06 04:48:56;;;;;;;;;;;17.70;56.80;;;;;;7317824;19;9583;-62
2023/12/06 04:51:25;;;;;;;;;;;17.80;56.70;;;;;;7318995;19;9279;-62
2023/12/06 04:53:56;;;;;;;;;;;17.80;56.60;;;;;;7319830;19;9376;-62
2023/12/06 04:56:25;;;;;;;;;;;17.90;56.50;;;;;;7317821;19;9253;-62
2023/12/06 04:58:54;;;;;;;;;;;17.90;56.40;;;;;;7319335;19;9564;-62
2023/12/06 05:01:23;;;;;;;;;;;18.00;56.40;;;;;;7319351;19;9422;-62
2023/12/06 05:03:53;;;;;;;;;;;18.10;56.40;;;;;;7318899;19;9420;-62
2023/12/06 05:06:22;;;;;;;;;;;18.10;56.40;;;;;;7317531;19;9451;-63
2023/12/06 05:09:13;;;;;;;;;;;18.20;56.30;;;;;;7317934;19;9501;-62
2023/12/06 05:11:42;;;;;;;;;;;18.30;56.30;;;;;;7318645;19;9585;-62
2023/12/06 05:14:11;;;;;;;;;;;18.30;56.30;;;;;;7317899;19;10785;-62
2023/12/06 05:16:40;;;;;;;;;;;18.40;56.20;;;;;;7317432;19;9362;-62
2023/12/06 05:19:09;;;;;;;;;;;18.40;56.00;;;;;;7317683;19;9483;-62
2023/12/06 05:21:38;;;;;;;;;;;18.50;55.90;;;;;;7318221;19;9144;-62
2023/12/06 05:24:07;;;;;;;;;;;18.50;56.00;;;;;;7319421;19;9588;-62
2023/12/06 05:26:39;;;;;;;;;;;18.50;56.00;;;;;;7315637;19;11136;-62
2023/12/06 05:29:08;;;;;;;;;;;18.50;55.90;;;;;;7317545;19;9194;-63
2023/12/06 05:31:37;;;;;;;;;;;18.60;56.00;;;;;;7316991;19;9510;-62
2023/12/06 05:34:07;;;;;;;;;;;18.60;55.90;;;;;;7317168;19;9214;-62
2023/12/06 05:36:36;;;;;;;;;;;18.70;55.90;;;;;;7318271;19;9466;-62
2023/12/06 05:39:07;;;;;;;;;;;18.70;55.90;;;;;;7317701;19;9457;-62
2023/12/06 05:41:39;;;;;;;;;;;18.80;55.80;;;;;;7316776;19;9803;-62
2023/12/06 05:44:08;;;;;;;;;;;18.80;55.80;;;;;;7318080;19;9468;-62
2023/12/06 05:46:37;;;;;;;;;;;18.80;55.80;;;;;;7317848;19;9649;-62
2023/12/06 05:49:06;;;;;;;;;;;18.80;55.60;;;;;;7315404;19;9311;-62
2023/12/06 05:51:35;;;;;;;;;;;18.80;55.60;;;;;;7323484;19;9127;-62
2023/12/06 05:54:04;;;;;;;;;;;18.80;55.50;;;;;;7323080;19;10312;-62
2023/12/06 05:56:33;;;;;;;;;;;18.80;55.40;;;;;;7323143;19;10235;-62
2023/12/06 05:59:05;;;;;;;;;;;18.80;55.50;;;;;;7323909;19;9462;-62
2023/12/06 06:01:34;;;;;;;;;;;18.70;55.30;;;;;;7323625;19;10438;-62
2023/12/06 06:04:04;;;;;;;;;;;18.70;55.20;;;;;;7324351;19;9335;-62
2023/12/06 06:06:36;;;;;;;;;;;18.70;55.20;;;;;;7323920;19;9521;-62
2023/12/06 06:09:05;;;;;;;;;;;18.60;55.20;;;;;;7325185;19;9170;-62
2023/12/06 06:11:34;;;;;;;;;;;18.60;55.30;;;;;;7322655;19;9477;-62
2023/12/06 06:14:06;;;;;;;;;;;18.50;55.30;;;;;;7323200;19;9240;-62
2023/12/06 06:16:35;;;;;;;;;;;18.50;55.40;;;;;;7322481;19;9822;-62
2023/12/06 06:19:03;;;;;;;;;;;18.50;55.40;;;;;;7321688;19;9378;-62
2023/12/06 06:21:32;;;;;;;;;;;18.40;55.50;;;;;;7323191;19;9282;-62
2023/12/06 06:24:01;;;;;;;;;;;18.30;55.40;;;;;;7322735;19;9179;-62
2023/12/06 06:26:30;;;;;;;;;;;18.30;55.50;;;;;;7323259;19;9204;-62
2023/12/06 06:28:59;;;;;;;;;;;18.30;55.60;;;;;;7323228;19;9580;-62
2023/12/06 06:31:30;;;;;;;;;;;18.30;55.90;;;;;;7322619;19;9229;-61
2023/12/06 06:34:01;;;;;;;;;;;18.20;55.70;;;;;;7322751;19;9461;-62
2023/12/06 06:36:30;;;;;;;;;;;18.20;55.80;;;;;;7322395;19;9249;-61
2023/12/06 06:38:59;;;;;;;;;;;18.10;55.90;;;;;;7324537;19;9160;-61
2023/12/06 06:41:28;;;;;;;;;;;18.10;56.00;;;;;;7323690;19;9711;-61
2023/12/06 06:43:57;;;;;;;;;;;18.10;56.10;;;;;;7322288;19;11370;-62
2023/12/06 06:46:26;;;;;;;;;;;18.00;56.20;;;;;;7322340;19;9379;-61
2023/12/06 06:48:58;;;;;;;;;;;18.00;56.20;;;;;;7321645;19;9452;-61
2023/12/06 06:51:35;;;;;;;;;;;17.90;56.30;;;;;;7321631;19;9421;-61
2023/12/06 06:54:04;;;;;;;;;;;17.90;56.30;;;;;;7318457;19;9488;-61
2023/12/06 06:56:33;;;;;;;;;;;17.90;56.50;;;;;;7322759;19;9249;-61
2023/12/06 06:59:02;;;;;;;;;;;17.90;56.60;;;;;;7320514;19;9669;-62
2023/12/06 07:01:31;;;;;;;;;;;17.80;56.60;;;;;;7322330;19;9274;-61
2023/12/06 07:04:03;;;;;;;;;;;17.80;56.70;;;;;;7321589;19;9600;-61
2023/12/06 07:06:33;;;;;;;;;;;17.80;56.90;;;;;;7322275;19;10648;-61
2023/12/06 07:09:02;;;;;;;;;;;17.80;56.90;;;;;;7321434;19;9629;-61
2023/12/06 07:11:33;;;;;;;;;;;17.80;56.90;;;;;;7323432;19;9460;-62
2023/12/06 07:14:03;;;;;;;;;;;17.70;57.10;;;;;;7320837;19;9516;-62
2023/12/06 07:16:32;;;;;;;;;;;17.70;57.00;;;;;;7322700;19;9448;-62
2023/12/06 07:19:03;;;;;;;;;;;17.70;57.10;;;;;;7323311;19;9617;-61
2023/12/06 07:21:52;;;;;;;;;;;17.70;57.10;;;;;;7319470;19;9496;-62
2023/12/06 07:24:22;;;;;;;;;;;17.70;57.20;;;;;;7319083;19;9431;-61
2023/12/06 07:26:51;;;;;;;;;;;17.70;57.30;;;;;;7317817;19;9545;-61
2023/12/06 07:29:20;;;;;;;;;;;17.70;57.40;;;;;;7314838;19;9747;-61
2023/12/06 07:31:50;;;;;;;;;;;17.70;57.20;;;;;;7314824;19;9532;-62
2023/12/06 07:34:22;;;;;;;;;;;17.70;57.20;;;;;;7317416;19;9400;-61
2023/12/06 07:36:53;;;;;;;;;;;17.70;57.20;;;;;;7322002;19;9595;-61
2023/12/06 07:39:24;;;;;;;;;;;17.80;57.10;;;;;;7319352;19;12472;-62
2023/12/06 07:41:53;;;;;;;;;;;17.80;57.10;;;;;;7318888;19;9433;-61
2023/12/06 07:44:22;;;;;;;;;;;17.80;57.00;;;;;;7320604;19;9469;-62
2023/12/06 07:46:51;;;;;;;;;;;17.90;56.90;;;;;;7320552;19;9464;-62
2023/12/06 07:49:22;;;;;;;;;;;17.90;56.90;;;;;;7320904;19;9385;-63
2023/12/06 07:51:51;;;;;;;;;;;18.00;56.80;;;;;;7319437;19;9470;-63
2023/12/06 07:54:20;;;;;;;;;;;18.00;57.40;;;;;;7318655;19;9506;-63
2023/12/06 07:56:49;;;;;;;;;;;18.10;56.70;;;;;;7320718;19;9217;-60
2023/12/06 07:59:18;;;;;;;;;;;18.10;56.50;;;;;;7321474;19;9212;-60
2023/12/06 08:01:48;;;;;;;;;;;18.20;56.30;;;;;;7320386;19;9463;-60
2023/12/06 08:04:18;;;;;;;;;;;18.20;56.30;;;;;;7320358;19;9202;-60
2023/12/06 08:06:51;;;;;;;;;;;18.20;56.30;;;;;;7320622;19;9486;-60
2023/12/06 08:09:20;;;;;;;;;;;18.30;56.50;;;;;;7319353;19;9186;-60
2023/12/06 08:12:10;;;;;;;;;;;18.30;56.30;;;;;;7318745;19;9253;-61
2023/12/06 08:14:43;;;;;;;;;;;18.40;56.30;;;;;;7318088;19;9746;-61
2023/12/06 08:17:12;;;;;;;;;;;18.40;56.30;;;;;;7320538;19;9465;-61
2023/12/06 08:19:41;;;;;;;;;;;18.50;56.30;;;;;;7319701;19;9523;-61
2023/12/06 08:22:13;;;;;;;;;;;18.60;56.40;;;;;;7319478;19;9642;-61
2023/12/06 08:24:42;;;;;;;;;;;18.60;56.10;;;;;;7319352;19;9450;-61
2023/12/06 08:27:11;;;;;;;;;;;18.70;56.10;;;;;;7320084;19;9169;-61
2023/12/06 08:29:40;;;;;;;;;;;18.70;56.00;;;;;;7318954;19;9520;-61
2023/12/06 08:32:10;;;;;;;;;;;18.80;55.90;;;;;;7317587;19;9452;-61
2023/12/06 08:34:39;;;;;;;;;;;18.90;55.90;;;;;;7318819;19;9307;-62
2023/12/06 08:37:08;;;;;;;;;;;18.90;55.80;;;;;;7318749;19;9526;-61
2023/12/06 08:39:39;;;;;;;;;;;18.90;55.70;;;;;;7318902;19;9837;-61
2023/12/06 08:42:08;;;;;;;;;;;18.90;55.70;;;;;;7319943;19;9457;-62
2023/12/06 08:44:37;;;;;;;;;;;18.90;55.70;;;;;;7318713;19;9407;-62
2023/12/06 08:47:07;;;;;;;;;;;18.90;55.70;;;;;;7315042;19;9571;-62
2023/12/06 08:49:38;;;;;;;;;;;18.90;55.70;;;;;;7318464;19;9466;-62
2023/12/06 08:52:10;;;;;;;;;;;18.90;55.70;;;;;;7315723;19;9410;-62
2023/12/06 08:54:41;;;;;;;;;;;18.80;55.60;;;;;;7319127;19;10199;-61
2023/12/06 08:57:30;;;;;;;;;;;18.80;55.60;;;;;;7314784;19;9298;-62
2023/12/06 08:59:59;;;;;;;;;;;18.80;55.50;;;;;;7317642;19;9737;-62
2023/12/06 09:02:28;;;;;;;;;;;18.80;55.50;;;;;;7316196;19;9445;-62
2023/12/06 09:04:57;;;;;;;;;;;18.70;55.40;;;;;;7318148;19;9520;-61
2023/12/06 09:07:27;;;;;;;;;;;18.70;55.50;;;;;;7319733;19;9602;-61
2023/12/06 09:09:59;;;;;;;;;;;18.70;55.60;;;;;;7316537;19;10624;-62
2023/12/06 09:12:28;;;;;;;;;;;18.60;55.60;;;;;;7317770;19;9427;-61
2023/12/06 09:14:57;;;;;;;;;;;18.60;55.60;;;;;;7318595;19;10792;-62
2023/12/06 09:17:25;;;;;;;;;;;18.50;55.60;;;;;;7317493;19;9344;-62
2023/12/06 09:19:54;;;;;;;;;;;18.50;55.70;;;;;;7317909;19;9548;-62
2023/12/06 09:22:23;;;;;;;;;;;18.50;55.80;;;;;;7317246;19;9470;-62
2023/12/06 09:24:52;;;;;;;;;;;18.40;56.50;;;;;;7316448;19;10366;-61
2023/12/06 09:27:24;;;;;;;;;;;18.40;55.80;;;;;;7319646;19;9524;-62
2023/12/06 09:29:53;;;;;;;;;;;18.30;55.90;;;;;;7316501;19;10371;-62
2023/12/06 09:32:23;;;;;;;;;;;18.30;55.90;;;;;;7317934;19;9487;-61
2023/12/06 09:34:55;;;;;;;;;;;18.20;56.00;;;;;;7316814;19;9209;-62
2023/12/06 09:37:23;;;;;;;;;;;18.20;56.10;;;;;;7316233;19;9646;-61
2023/12/06 09:39:55;;;;;;;;;;;18.20;56.20;;;;;;7316297;19;9495;-62
2023/12/06 09:42:29;;;;;;;;;;;18.10;56.20;;;;;;7315120;19;9642;-62
2023/12/06 09:44:58;;;;;;;;;;;18.10;56.30;;;;;;7314370;19;9231;-61
2023/12/06 09:47:28;;;;;;;;;;;18.00;56.40;;;;;;7314996;19;9431;-62
2023/12/06 09:49:57;;;;;;;;;;;18.00;56.30;;;;;;7314846;19;10686;-62
2023/12/06 09:52:26;;;;;;;;;;;18.00;56.40;;;;;;7313559;19;9632;-61
2023/12/06 09:54:57;;;;;;;;;;;17.90;56.50;;;;;;7314746;19;9466;-62
2023/12/06 09:57:28;;;;;;;;;;;17.90;56.50;;;;;;7313977;19;9459;-62
2023/12/06 10:00:18;;;;;;;;;;;17.90;56.60;;;;;;7314592;19;9544;-62
2023/12/06 10:02:54;;;;;;;;;;;17.80;56.50;;;;;;7315743;19;9482;-62
2023/12/06 10:05:24;;;;;;;;;;;17.80;57.30;;;;;;7315202;19;9546;-62
2023/12/06 10:07:54;;;;;;;;;;;17.80;56.60;;;;;;7318636;19;9236;-62
2023/12/06 10:10:24;;;;;;;;;;;17.80;56.70;;;;;;7317824;19;9495;-61
2023/12/06 10:12:58;;;;;;;;;;;17.80;56.70;;;;;;7317196;19;9245;-62
2023/12/06 10:15:27;;;;;;;;;;;17.80;56.70;;;;;;7316142;19;9498;-62
2023/12/06 10:17:56;;;;;;;;;;;17.70;56.70;;;;;;7316380;19;9457;-61
2023/12/06 10:20:27;;;;;;;;;;;17.70;56.70;;;;;;7316366;19;9415;-62
2023/12/06 10:22:56;;;;;;;;;;;17.70;56.70;;;;;;7314730;19;9460;-61
2023/12/06 10:25:25;;;;;;;;;;;17.70;56.80;;;;;;7318154;19;9573;-61
2023/12/06 10:28:01;;;;;;;;;;;17.70;56.80;;;;;;7315644;19;9683;-62
2023/12/06 10:30:30;;;;;;;;;;;17.70;56.80;;;;;;7315886;19;9269;-62
2023/12/06 10:33:02;;;;;;;;;;;17.70;56.80;;;;;;7315115;19;9673;-62
2023/12/06 10:35:33;;;;;;;;;;;17.80;56.80;;;;;;7312289;19;9374;-62
2023/12/06 10:38:02;;;;;;;;;;;17.80;56.60;;;;;;7315815;19;9503;-62
2023/12/06 10:40:32;;;;;;;;;;;17.80;56.50;;;;;;7322604;19;9474;-61
2023/12/06 10:43:09;;;;;;;;;;;17.90;56.60;;;;;;7321112;19;9217;-61
2023/12/06 10:45:40;;;;;;;;;;;17.90;56.70;;;;;;7322250;19;9149;-62
2023/12/06 10:48:12;;;;;;;;;;;18.00;56.80;;;;;;7322195;19;9707;-62
2023/12/06 10:50:42;;;;;;;;;;;18.10;56.50;;;;;;7319052;19;9456;-62
2023/12/06 10:53:16;;;;;;;;;;;18.10;56.40;;;;;;7318211;19;9602;-62
2023/12/06 10:55:45;;;;;;;;;;;18.20;56.30;;;;;;7319624;19;9465;-62
2023/12/06 10:58:18;;;;;;;;;;;18.30;56.20;;;;;;7317690;19;9473;-63
2023/12/06 11:00:49;;;;;;;;;;;18.30;56.10;;;;;;7319504;19;9132;-63
2023/12/06 11:03:18;;;;;;;;;;;18.50;56.20;;;;;;7318848;19;9503;-63
2023/12/06 11:05:54;;;;;;;;;;;18.40;56.00;;;;;;7321799;19;9348;-63
2023/12/06 11:08:48;;;;;;;;;;;18.50;56.00;;;;;;7319694;19;9494;-63
2023/12/06 11:11:33;;;;;;;;;;;18.50;55.80;;;;;;7319153;19;9265;-62
2023/12/06 11:14:27;;;;;;;;;;;18.50;55.80;;;;;;7319047;19;9578;-62
2023/12/06 11:17:09;;;;;;;;;;;18.50;56.00;;;;;;7321303;19;9268;-63
2023/12/06 11:19:40;;;;;;;;;;;18.60;56.00;;;;;;7321554;19;9557;-63
2023/12/06 11:22:10;;;;;;;;;;;18.60;56.00;;;;;;7320537;19;9219;-63
2023/12/06 11:24:39;;;;;;;;;;;18.60;56.00;;;;;;7318632;19;10744;-63
2023/12/06 11:27:10;;;;;;;;;;;18.70;56.00;;;;;;7321562;19;9661;-62
2023/12/06 11:29:43;;;;;;;;;;;18.70;56.00;;;;;;7317242;19;10622;-62
2023/12/06 11:32:15;;;;;;;;;;;18.80;56.10;;;;;;7320995;19;9416;-62
2023/12/06 11:34:44;;;;;;;;;;;18.80;55.90;;;;;;7320062;19;10815;-62
2023/12/06 11:37:20;;;;;;;;;;;18.90;55.90;;;;;;7320437;19;9477;-62
2023/12/06 11:40:10;;;;;;;;;;;18.90;55.80;;;;;;7320589;19;9238;-62
2023/12/06 11:43:00;;;;;;;;;;;19.00;55.70;;;;;;7315249;19;9207;-62
2023/12/06 11:45:33;;;;;;;;;;;19.00;55.70;;;;;;7321056;19;10842;-62
2023/12/06 11:48:05;;;;;;;;;;;19.10;55.70;;;;;;7317990;19;9579;-62
2023/12/06 11:50:44;;;;;;;;;;;19.10;55.70;;;;;;7318245;19;9673;-62
2023/12/06 11:53:13;;;;;;;;;;;19.20;55.70;;;;;;7321078;19;9468;-62
2023/12/06 11:55:44;;;;;;;;;;;19.20;55.70;;;;;;7319625;19;9405;-62
2023/12/06 11:58:14;;;;;;;;;;;19.20;55.70;;;;;;7318258;19;9366;-62
2023/12/06 12:00:47;;;;;;;;;;;19.20;55.60;;;;;;7319263;19;9274;-62
2023/12/06 12:03:17;;;;;;;;;;;19.20;55.70;;;;;;7317708;19;9526;-63
2023/12/06 12:05:46;;;;;;;;;;;19.20;55.70;;;;;;7320339;19;9386;-62
2023/12/06 12:08:16;;;;;;;;;;;19.20;55.70;;;;;;7317062;19;9250;-63
2023/12/06 12:10:46;;;;;;;;;;;19.20;55.70;;;;;;7318304;19;9460;-63
2023/12/06 12:13:19;;;;;;;;;;;19.20;55.80;;;;;;7319088;19;10282;-61
2023/12/06 12:16:00;;;;;;;;;;;19.30;55.90;;;;;;7320700;19;9377;-61
2023/12/06 12:18:30;;;;;;;;;;;19.30;55.90;;;;;;7319980;19;9205;-61
2023/12/06 12:21:00;;;;;;;;;;;19.30;55.90;;;;;;7320006;19;9392;-63
2023/12/06 12:23:30;;;;;;;;;;;19.30;55.80;;;;;;7320785;19;11054;-61
2023/12/06 12:25:59;;;;;;;;;;;19.40;55.80;;;;;;7313772;19;8996;-61
2023/12/06 12:28:29;;;;;;;;;;;19.40;55.70;;;;;;7316525;19;9453;-61
2023/12/06 12:31:07;;;;;;;;;;;19.50;55.70;;;;;;7316825;19;9473;-61
2023/12/06 12:33:37;;;;;;;;;;;19.50;55.70;;;;;;7316789;19;9458;-61
2023/12/06 12:36:07;;;;;;;;;;;19.50;55.60;;;;;;7319911;19;9497;-63
2023/12/06 12:38:38;;;;;;;;;;;19.50;55.60;;;;;;7319898;19;9471;-62
2023/12/06 12:41:10;;;;;;;;;;;19.50;55.60;;;;;;7319491;19;9495;-62
2023/12/06 12:43:40;;;;;;;;;;;19.60;55.60;;;;;;7319909;19;9498;-62
2023/12/06 12:46:13;;;;;;;;;;;19.60;55.60;;;;;;7316189;19;14079;-63
2023/12/06 12:48:42;;;;;;;;;;;19.60;55.60;;;;;;7319005;19;9232;-62
2023/12/06 12:51:14;;;;;;;;;;;19.70;55.60;;;;;;7318557;19;9271;-62
2023/12/06 12:53:45;;;;;;;;;;;19.70;55.60;;;;;;7316940;19;9206;-63
2023/12/06 12:56:17;;;;;;;;;;;19.70;55.60;;;;;;7319683;19;9521;-63
2023/12/06 12:58:47;;;;;;;;;;;19.70;55.60;;;;;;7317540;19;9471;-62
2023/12/06 13:01:19;;;;;;;;;;;19.70;55.50;;;;;;7317459;19;9299;-62
2023/12/06 13:03:49;;;;;;;;;;;19.70;55.40;;;;;;7316761;19;10401;-62
2023/12/06 13:06:20;;;;;;;;;;;19.70;55.50;;;;;;7319554;19;8944;-62
2023/12/06 13:08:49;;;;;;;;;;;19.70;55.50;;;;;;7317134;19;9178;-63
2023/12/06 13:11:20;;;;;;;;;;;19.70;55.60;;;;;;7313910;19;9279;-62
2023/12/06 13:13:49;;;;;;;;;;;19.70;55.60;;;;;;7316614;19;10393;-62
2023/12/06 13:16:41;;;;;;;;;;;19.70;55.60;;;;;;7315534;19;9647;-62
2023/12/06 13:19:10;;;;;;;;;;;19.70;55.60;;;;;;7315587;19;9597;-62
2023/12/06 13:21:39;;;;;;;;;;;19.70;55.70;;;;;;7314728;19;9541;-63
2023/12/06 13:24:10;;;;;;;;;;;19.70;55.60;;;;;;7319424;19;9310;-63
2023/12/06 13:26:39;;;;;;;;;;;19.80;55.70;;;;;;7312817;19;9269;-64
2023/12/06 13:29:08;;;;;;;;;;;19.80;55.60;;;;;;7317719;19;9460;-63
2023/12/06 13:32:01;;;;;;;;;;;19.80;55.50;;;;;;7317200;19;9633;-63
2023/12/06 13:34:30;;;;;;;;;;;19.80;55.50;;;;;;7316028;19;9724;-63
2023/12/06 13:37:40;;;;;;;;;;;19.80;55.50;;;;;;7316173;19;9400;-63
2023/12/06 13:40:11;;;;;;;;;;;19.90;55.40;;;;;;7311127;19;9574;-63
2023/12/06 13:42:40;;;;;;;;;;;19.90;55.40;;;;;;7316654;19;9792;-63
2023/12/06 13:45:09;;;;;;;;;;;19.90;55.50;;;;;;7316532;19;10581;-63
2023/12/06 13:47:41;;;;;;;;;;;19.90;55.40;;;;;;7315259;19;9589;-62
2023/12/06 13:50:11;;;;;;;;;;;19.90;55.40;;;;;;7313944;19;9478;-63
2023/12/06 13:52:40;;;;;;;;;;;20.00;55.50;;;;;;7317278;19;9255;-63
2023/12/06 13:55:10;;;;;;;;;;;19.90;55.40;;;;;;7314908;19;9473;-61
2023/12/06 13:57:39;;;;;;;;;;;20.00;55.50;;;;;;7316883;19;9471;-62
2023/12/06 14:00:10;;;;;;;;;;;19.90;55.30;;;;;;7317025;19;9257;-62
2023/12/06 14:02:41;;;;;;;;;;;19.90;55.40;;;;;;7315243;19;9455;-62
2023/12/06 14:05:12;;;;;;;;;;;19.90;55.30;;;;;;7313751;19;9317;-62
2023/12/06 14:07:41;;;;;;;;;;;19.90;55.40;;;;;;7316083;19;9229;-61
2023/12/06 14:10:11;;;;;;;;;;;19.80;55.20;;;;;;7315080;19;9472;-63
2023/12/06 14:12:41;;;;;;;;;;;19.80;55.20;;;;;;7318575;19;9260;-62
2023/12/06 14:18:40;;;;;;;;;;;19.70;55.10;;;;;;7321296;19;9221;-62
2023/12/06 14:21:09;;;;;;;;;;;19.70;55.10;;;;;;7322441;19;9629;-62
2023/12/06 14:23:38;;;;;;;;;;;19.60;55.00;;;;;;7323453;19;9537;-62
2023/12/06 14:26:09;;;;;;;;;;;19.60;55.00;;;;;;7322072;19;9456;-62
2023/12/06 14:28:39;;;;;;;;;;;19.50;55.00;;;;;;7323247;19;9216;-62
2023/12/06 14:31:09;;;;;;;;;;;19.50;55.00;;;;;;7319642;19;9505;-62
2023/12/06 14:33:41;;;;;;;;;;;19.40;55.20;;;;;;7322170;19;11707;-62
2023/12/06 14:36:11;;;;;;;;;;;19.40;55.10;;;;;;7319531;19;9244;-62
2023/12/06 14:38:41;;;;;;;;;;;19.40;55.30;;;;;;7321201;19;9229;-63
2023/12/06 14:41:10;;;;;;;;;;;19.30;55.20;;;;;;7320850;19;9637;-62
2023/12/06 14:43:40;;;;;;;;;;;19.30;55.30;;;;;;7323361;19;9544;-63
2023/12/06 14:46:11;;;;;;;;;;;19.20;55.50;;;;;;7321819;19;9272;-63
2023/12/06 14:48:42;;;;;;;;;;;19.10;55.40;;;;;;7321610;19;9436;-62
2023/12/06 14:51:11;;;;;;;;;;;19.10;55.50;;;;;;7322360;19;10203;-62
2023/12/06 14:53:41;;;;;;;;;;;19.00;55.60;;;;;;7321555;19;9540;-62